Terminal Aerodrome Forecast
Issued by NWS Boston, MA

Home | Current Version | Previous Version | Text Only | Print | Product List | Glossary On
Versions: 1 2 3 4 5 6 7 8 9 10 11 12 13 14 15 16 17 18 19 20 21 22 23 24 25 26 27 28 29 30 31 32 33 34 35 36 37 38 39 40 41 42
000
FTUS41 KBOX 191737
TAFBOS
TAF
KBOS 191737Z 1918/2024 11011KT P6SM FEW050
     FM192300 13009KT P6SM FEW250
     FM200300 17006KT P6SM SCT200
     FM200800 13007KT P6SM BKN150
     FM201300 10012KT P6SM BKN130
     FM201600 10017G26KT P6SM -RA OVC050
     FM201800 10021G31KT 2SM -RA BR OVC010
     FM202000 10019G29KT 2SM -SHRA BR OVC010 WS020/13050KT=

USA.gov is the U.S. government's official web portal to all federal, state and local government web resources and services.